createdAt,value
2023-02-20T00:01:02.284Z,0.20
2023-02-20T00:05:03.977Z,0.30
2023-02-20T00:09:05.447Z,0.40
2023-02-20T00:13:07.187Z,0.43
2023-02-20T00:17:08.599Z,0.60
2023-02-20T00:21:10.126Z,0.65
2023-02-20T00:25:11.886Z,0.50
2023-02-20T00:29:16.327Z,0.52
2023-02-20T00:33:17.891Z,0.40
2023-02-20T00:37:19.371Z,0.28
2023-02-20T00:41:21.911Z,0.52
2023-02-20T00:45:23.377Z,0.45
2023-02-20T00:49:24.886Z,0.68
2023-02-20T00:53:26.813Z,0.65
2023-02-20T00:57:28.300Z,0.47
2023-02-20T01:01:30.025Z,0.50
2023-02-20T01:05:31.482Z,0.35
2023-02-20T01:09:33.341Z,0.30
2023-02-20T01:13:34.878Z,0.50
2023-02-20T01:17:36.299Z,0.70
2023-02-20T01:21:37.780Z,0.28
2023-02-20T01:25:39.257Z,0.40
2023-02-20T01:29:40.692Z,1.02
2023-02-20T01:33:43.696Z,0.60
2023-02-20T01:37:45.834Z,0.70
2023-02-20T01:41:52.202Z,0.50
2023-02-20T01:45:54.515Z,0.85
2023-02-20T01:50:00.174Z,0.88
2023-02-20T01:54:02.717Z,0.70
2023-02-20T01:58:12.563Z,0.50
2023-02-20T02:06:16.922Z,0.70
2023-02-20T02:10:26.613Z,0.90
2023-02-20T02:14:28.379Z,0.40
2023-02-20T02:18:52.482Z,0.98
2023-02-20T02:23:09.616Z,0.50
2023-02-20T02:27:42.772Z,0.65
2023-02-20T02:32:06.496Z,0.63
2023-02-20T02:36:23.650Z,0.50
2023-02-20T02:40:37.422Z,0.40
2023-02-20T02:44:48.923Z,0.80
2023-02-20T02:49:32.803Z,0.40
2023-02-20T02:53:34.284Z,0.65
2023-02-20T02:57:35.710Z,0.32
2023-02-20T03:01:45.823Z,0.20
2023-02-20T03:05:52.415Z,0.60
2023-02-20T03:10:00.426Z,0.50
2023-02-20T03:14:23.558Z,0.32
2023-02-20T03:18:36.517Z,0.30
2023-02-20T03:22:48.851Z,0.50
2023-02-20T03:26:55.428Z,0.80
2023-02-20T03:31:04.628Z,0.70
2023-02-20T03:35:25.302Z,1.15
2023-02-20T03:39:51.761Z,0.68
2023-02-20T03:43:54.232Z,0.50
2023-02-20T03:48:02.512Z,0.88
2023-02-20T03:52:07.288Z,0.70
2023-02-20T03:56:16.662Z,0.52
2023-02-20T04:00:22.279Z,1.17
2023-02-20T04:04:37.094Z,0.55
2023-02-20T04:09:06.090Z,0.55
2023-02-20T04:13:13.108Z,0.52
2023-02-20T04:17:19.203Z,0.73
2023-02-20T04:21:38.975Z,1.40
2023-02-20T04:26:03.673Z,0.52
2023-02-20T04:30:10.189Z,0.50
2023-02-20T04:34:11.853Z,0.60
2023-02-20T04:38:14.200Z,0.45
2023-02-20T04:42:16.310Z,0.95
2023-02-20T04:46:18.547Z,1.27
2023-02-20T04:50:29.356Z,0.90
2023-02-20T04:54:32.073Z,1.17
2023-02-20T04:58:37.228Z,0.50
2023-02-20T05:02:49.141Z,0.63
2023-02-20T05:06:53.189Z,0.73
2023-02-20T05:10:54.602Z,0.55
2023-02-20T05:14:56.021Z,0.40
2023-02-20T05:18:57.953Z,0.65
2023-02-20T05:22:59.379Z,0.50
2023-02-20T05:27:00.934Z,1.23
2023-02-20T05:31:02.396Z,0.30
2023-02-20T05:35:03.932Z,1.42
2023-02-20T05:39:05.694Z,0.50
2023-02-20T05:43:07.118Z,0.65
2023-02-20T05:47:08.712Z,0.98
2023-02-20T05:51:20.083Z,0.63
2023-02-20T05:55:21.649Z,0.63
2023-02-20T05:59:23.671Z,1.80
2023-02-20T06:03:25.181Z,0.93
2023-02-20T06:07:26.697Z,1.50
2023-02-20T06:11:28.228Z,1.33
2023-02-20T06:15:29.629Z,0.90
2023-02-20T06:19:31.031Z,1.30
2023-02-20T06:23:32.437Z,1.27
2023-02-20T06:27:33.888Z,0.98
2023-02-20T06:31:36.659Z,1.17
2023-02-20T06:35:38.210Z,2.45
2023-02-20T06:39:42.930Z,2.08
2023-02-20T06:43:44.436Z,1.63
2023-02-20T06:47:45.864Z,1.55
2023-02-20T06:51:47.317Z,1.27
2023-02-20T06:55:48.843Z,2.33
2023-02-20T06:59:50.561Z,1.88
2023-02-20T07:03:53.496Z,2.17
2023-02-20T07:07:55.027Z,1.58
2023-02-20T07:11:56.792Z,2.90
2023-02-20T07:15:58.329Z,1.13
2023-02-20T07:19:59.921Z,1.65
2023-02-20T07:24:01.434Z,2.22
2023-02-20T07:28:03.172Z,2.30
2023-02-20T07:32:05.520Z,1.42
2023-02-20T07:36:07.539Z,3.13
2023-02-20T07:40:09.600Z,1.52
2023-02-20T07:44:12.944Z,2.05
2023-02-20T07:48:14.587Z,2.17
2023-02-20T07:52:16.072Z,1.27
2023-02-20T07:56:19.706Z,2.08
2023-02-20T08:00:21.824Z,2.13
2023-02-20T08:04:23.331Z,2.08
2023-02-20T08:08:25.547Z,2.63
2023-02-20T08:12:27.055Z,1.60
2023-02-20T08:16:28.501Z,2.25
2023-02-20T08:20:29.949Z,2.47
2023-02-20T08:24:31.377Z,2.10
2023-02-20T08:28:32.808Z,1.98
2023-02-20T08:32:34.339Z,1.92
2023-02-20T08:36:35.822Z,1.58
2023-02-20T08:40:37.238Z,1.70
2023-02-20T08:44:40.898Z,2.28
2023-02-20T08:48:42.997Z,1.63
2023-02-20T08:52:45.364Z,3.22
2023-02-20T08:56:46.801Z,1.40
2023-02-20T09:00:49.481Z,2.22
2023-02-20T09:04:51.016Z,1.75
2023-02-20T09:08:52.870Z,0.98
2023-02-20T09:12:54.576Z,1.20
2023-02-20T09:16:56.044Z,2.35
2023-02-20T09:20:57.543Z,2.08
2023-02-20T09:24:58.956Z,2.42
2023-02-20T09:29:00.431Z,2.80
2023-02-20T09:33:02.001Z,2.80
2023-02-20T09:37:04.716Z,2.17
2023-02-20T09:41:19.792Z,2.10
2023-02-20T09:45:25.717Z,2.00
2023-02-20T09:49:34.045Z,2.35
2023-02-20T09:53:44.649Z,1.90
2023-02-20T09:57:49.800Z,1.92
2023-02-20T10:02:01.875Z,2.53
2023-02-20T10:06:21.099Z,2.13
2023-02-20T10:10:26.646Z,3.33
2023-02-20T10:14:45.831Z,2.35
2023-02-20T10:19:14.372Z,2.08
2023-02-20T10:23:20.717Z,3.03
2023-02-20T10:27:35.929Z,2.17
2023-02-20T10:31:52.745Z,1.92
2023-02-20T10:36:11.479Z,3.85
2023-02-20T10:40:15.896Z,2.35
2023-02-20T10:44:20.440Z,1.48
2023-02-20T10:48:26.479Z,3.65
2023-02-20T10:52:59.824Z,1.65
2023-02-20T10:57:11.083Z,2.35
2023-02-20T11:01:21.208Z,1.52
2023-02-20T11:05:25.910Z,1.30
2023-02-20T11:09:27.546Z,0.70
2023-02-20T11:13:29.001Z,2.47
2023-02-20T11:17:31.583Z,1.83
2023-02-20T11:21:41.885Z,2.42
2023-02-20T11:25:43.341Z,1.75
2023-02-20T11:30:28.569Z,2.08
2023-02-20T11:34:32.294Z,1.95
2023-02-20T11:38:35.799Z,1.98
2023-02-20T11:42:37.388Z,1.67
2023-02-20T11:46:39.288Z,2.35
2023-02-20T11:50:52.036Z,1.75
2023-02-20T11:55:23.222Z,1.15
2023-02-20T11:59:42.882Z,1.55
2023-02-20T12:03:55.900Z,1.33
2023-02-20T12:07:59.556Z,1.33
2023-02-20T12:12:00.995Z,2.22
2023-02-20T12:16:23.145Z,2.03
2023-02-20T12:20:26.699Z,1.98
2023-02-20T12:24:39.842Z,1.50
2023-02-20T12:29:02.860Z,2.05
2023-02-20T12:33:10.834Z,1.10
2023-02-20T12:37:39.843Z,1.67
2023-02-20T12:42:06.171Z,1.02
2023-02-20T12:46:29.073Z,1.55
2023-02-20T12:51:17.058Z,1.42
2023-02-20T12:55:26.544Z,1.80
2023-02-20T12:59:54.550Z,1.15
2023-02-20T13:03:59.946Z,0.80
2023-02-20T13:08:07.150Z,1.75
2023-02-20T13:12:15.409Z,0.40
2023-02-20T13:16:22.663Z,0.75
2023-02-20T13:20:33.301Z,0.93
2023-02-20T13:24:39.301Z,1.83
2023-02-20T13:28:48.033Z,1.45
2023-02-20T13:33:09.598Z,1.00
2023-02-20T13:37:37.445Z,1.15
2023-02-20T13:41:54.053Z,1.15
2023-02-20T13:46:03.778Z,1.33
2023-02-20T13:58:29.433Z,0.50
2023-02-20T14:02:31.119Z,0.60
2023-02-20T14:06:32.687Z,0.50
2023-02-20T14:10:36.597Z,2.25
2023-02-20T14:14:45.996Z,0.80
2023-02-20T14:18:47.535Z,0.65
2023-02-20T14:22:50.448Z,0.90
2023-02-20T14:26:56.172Z,1.40
2023-02-20T14:31:21.181Z,0.93
2023-02-20T14:35:39.119Z,0.55
2023-02-20T14:40:06.010Z,0.45
2023-02-20T14:44:18.327Z,0.60
2023-02-20T14:48:28.806Z,1.13
2023-02-20T14:52:30.802Z,0.75
2023-02-20T14:56:34.132Z,0.90
2023-02-20T15:00:37.918Z,0.90
2023-02-20T15:04:51.732Z,1.10
2023-02-20T15:09:09.781Z,1.13
2023-02-20T15:13:21.206Z,1.05
2023-02-20T15:17:26.654Z,0.63
2023-02-20T15:21:58.127Z,0.30
2023-02-20T15:26:33.730Z,0.75
2023-02-20T15:30:35.716Z,0.30
2023-02-20T15:34:38.420Z,0.65
2023-02-20T15:38:41.159Z,0.43
2023-02-20T15:42:42.803Z,1.08
2023-02-20T15:46:44.240Z,1.00
2023-02-20T15:50:45.979Z,0.82
2023-02-20T15:54:53.595Z,0.85
2023-02-20T15:58:55.090Z,0.63
2023-02-20T16:02:56.741Z,0.70
2023-02-20T16:06:58.204Z,0.75
2023-02-20T16:10:59.781Z,0.98
2023-02-20T16:15:02.150Z,0.82
2023-02-20T16:19:09.943Z,1.05
2023-02-20T16:23:11.431Z,0.70
2023-02-20T16:27:24.148Z,0.50
2023-02-20T16:31:54.083Z,0.50
2023-02-20T16:35:57.527Z,0.82
2023-02-20T16:39:58.924Z,0.57
2023-02-20T16:44:02.305Z,0.73
2023-02-20T16:48:14.729Z,1.02
2023-02-20T16:52:22.638Z,0.85
2023-02-20T16:56:24.065Z,0.43
2023-02-20T17:00:31.335Z,0.52
2023-02-20T17:04:33.176Z,1.65
2023-02-20T17:08:34.613Z,0.80
2023-02-20T17:12:36.787Z,0.65
2023-02-20T17:16:38.280Z,1.17
2023-02-20T17:20:39.778Z,0.63
2023-02-20T17:24:43.186Z,0.82
2023-02-20T17:28:44.622Z,0.50
2023-02-20T17:32:46.041Z,0.90
2023-02-20T17:36:50.383Z,0.40
2023-02-20T17:40:52.616Z,1.10
2023-02-20T17:44:54.960Z,1.05
2023-02-20T17:48:56.450Z,0.65
2023-02-20T17:52:57.977Z,0.55
2023-02-20T17:57:00.135Z,0.70
2023-02-20T18:01:02.150Z,0.63
2023-02-20T18:05:03.969Z,0.50
2023-02-20T18:09:07.470Z,0.50
2023-02-20T18:13:08.944Z,0.40
2023-02-20T18:17:10.410Z,0.50
2023-02-20T18:21:23.839Z,0.70
2023-02-20T18:25:39.144Z,0.90
2023-02-20T18:29:41.331Z,0.50
2023-02-20T18:33:42.769Z,0.38
2023-02-20T18:37:44.318Z,1.08
2023-02-20T18:41:54.225Z,1.15
2023-02-20T18:45:56.440Z,0.60
2023-02-20T18:49:57.978Z,0.80
2023-02-20T18:53:59.462Z,0.50
2023-02-20T18:58:00.911Z,1.42
2023-02-20T19:02:05.801Z,0.60
2023-02-20T19:06:07.444Z,0.70
2023-02-20T19:10:11.766Z,0.35
2023-02-20T19:14:13.226Z,0.55
2023-02-20T19:18:14.708Z,0.85
2023-02-20T19:22:16.315Z,0.30
2023-02-20T19:26:17.785Z,0.43
2023-02-20T19:30:20.989Z,0.38
2023-02-20T19:34:22.716Z,0.50
2023-02-20T19:38:24.834Z,0.50
2023-02-20T19:42:28.577Z,0.60
2023-02-20T19:46:30.207Z,1.10
2023-02-20T19:50:31.940Z,0.40
2023-02-20T19:54:33.350Z,0.70
2023-02-20T19:58:40.214Z,0.40
2023-02-20T20:02:41.707Z,0.28
2023-02-20T20:06:44.071Z,0.55
2023-02-20T20:10:45.515Z,0.30
2023-02-20T20:14:46.967Z,0.77
2023-02-20T20:18:48.381Z,0.50
2023-02-20T20:22:52.134Z,0.60
2023-02-20T20:26:53.606Z,1.08
2023-02-20T20:30:55.169Z,0.55
2023-02-20T20:34:56.717Z,0.63
2023-02-20T20:38:58.144Z,0.45
2023-02-20T20:42:59.811Z,0.50
2023-02-20T20:47:03.604Z,0.30
2023-02-20T20:51:05.231Z,0.68
2023-02-20T20:55:07.077Z,0.20
2023-02-20T20:59:11.324Z,0.30
2023-02-20T21:03:15.594Z,0.75
2023-02-20T21:07:17.714Z,1.52
2023-02-20T21:11:19.208Z,0.43
2023-02-20T21:15:23.134Z,0.73
2023-02-20T21:19:24.686Z,0.65
2023-02-20T21:23:26.199Z,0.30
2023-02-20T21:27:27.793Z,0.73
2023-02-20T21:31:29.646Z,0.52
2023-02-20T21:35:31.241Z,0.55
2023-02-20T21:39:32.822Z,0.28
2023-02-20T21:43:52.872Z,0.50
2023-02-20T21:47:54.332Z,0.52
2023-02-20T21:51:56.481Z,0.40
2023-02-20T21:55:57.966Z,0.65
2023-02-20T21:59:59.430Z,0.30
2023-02-20T22:04:01.035Z,0.55
2023-02-20T22:08:21.014Z,0.47
2023-02-20T22:12:41.055Z,0.45
2023-02-20T22:17:01.213Z,0.68
2023-02-20T22:21:21.732Z,0.40
2023-02-20T22:25:42.371Z,0.25
2023-02-20T22:30:02.506Z,0.57
2023-02-20T22:34:22.697Z,0.30
2023-02-20T22:43:03.180Z,0.30
2023-02-20T22:47:23.348Z,0.60
2023-02-20T22:51:43.150Z,0.40
2023-02-20T22:56:03.440Z,0.32
2023-02-20T23:04:44.350Z,0.28
2023-02-20T23:09:06.562Z,0.38
2023-02-20T23:13:26.689Z,0.82
2023-02-20T23:17:46.925Z,0.30
2023-02-20T23:22:07.087Z,0.50
2023-02-20T23:26:26.928Z,0.40
2023-02-20T23:30:47.047Z,0.52
2023-02-20T23:35:07.069Z,0.73
2023-02-20T23:39:27.458Z,0.38
2023-02-20T23:43:49.009Z,0.35
2023-02-20T23:48:09.092Z,0.20
2023-02-20T23:52:29.498Z,0.38
2023-02-20T23:56:49.592Z,0.70
